Time;durP1;ratioP1;P1;durP2;ratioP2;P2;SDS_P1;SDS_P2;PMS_P1;PMS_P2;Temp;Humidity;BMP_temperature;BMP_pressure;BME280_temperature;BME280_humidity;BME280_pressure;Samples;Min_cycle;Max_cycle;Signal;HPM_P1;HPM_P2
2021/12/16 00:09:20;;;;;;;18.10;6.45;;;7.80;91.80;;;;;;5051144;28;20171;-67
2021/12/16 00:35:45;;;;;;;12.88;6.80;;;7.70;91.50;;;;;;5050707;28;20052;-66
2021/12/16 00:38:11;;;;;;;19.55;6.85;;;7.70;91.40;;;;;;5050271;28;20066;-66
2021/12/16 00:40:40;;;;;;;15.50;6.40;;;7.60;91.50;;;;;;5050415;28;20436;-66
2021/12/16 00:43:15;;;;;;;9.45;5.78;;;7.70;91.50;;;;;;5050553;28;20128;-66
2021/12/16 00:56:07;;;;;;;15.55;6.80;;;7.60;91.40;;;;;;5050385;28;20053;-66
2021/12/16 00:58:46;;;;;;;9.95;5.93;;;7.40;91.20;;;;;;5049936;28;21049;-66
2021/12/16 01:01:28;;;;;;;13.15;6.75;;;7.40;91.40;;;;;;5048734;28;20493;-66
2021/12/16 01:04:19;;;;;;;16.73;6.60;;;7.40;91.40;;;;;;5049926;28;20037;-66
2021/12/16 01:06:56;;;;;;;14.32;6.57;;;7.40;91.50;;;;;;5049158;28;20386;-66
2021/12/16 01:34:11;;;;;;;12.25;5.13;;;7.20;91.70;;;;;;5049443;28;20534;-66
2021/12/16 01:42:25;;;;;;;14.40;5.03;;;7.10;91.70;;;;;;5048886;28;20087;-66
2021/12/16 01:50:11;;;;;;;20.88;5.25;;;7.10;91.80;;;;;;5049866;28;20049;-66
2021/12/16 01:55:21;;;;;;;13.50;5.88;;;7.10;91.70;;;;;;5049416;28;20049;-66
2021/12/16 01:57:55;;;;;;;14.98;5.53;;;7.20;91.80;;;;;;5048181;28;20045;-66
2021/12/16 02:00:41;;;;;;;17.95;6.55;;;7.10;91.70;;;;;;5049411;28;20037;-66
2021/12/16 02:03:07;;;;;;;13.00;5.03;;;7.10;91.80;;;;;;5049120;28;20041;-66
2021/12/16 02:10:41;;;;;;;14.35;4.93;;;7.10;91.50;;;;;;5048778;28;20052;-66
2021/12/16 02:13:35;;;;;;;35.22;8.30;;;7.10;91.60;;;;;;5047574;28;20081;-66
2021/12/16 02:32:09;;;;;;;9.25;4.28;;;7.10;91.70;;;;;;5047143;28;20449;-66
2021/12/16 02:37:24;;;;;;;9.60;4.28;;;7.20;91.50;;;;;;5046507;28;20041;-66
2021/12/16 02:39:50;;;;;;;10.38;4.47;;;7.20;91.40;;;;;;5048319;28;20056;-66
2021/12/16 02:42:32;;;;;;;12.43;4.22;;;7.10;91.40;;;;;;5048680;28;20049;-66
2021/12/16 02:50:16;;;;;;;13.43;5.63;;;7.00;91.20;;;;;;5048900;28;20481;-66
2021/12/16 02:52:42;;;;;;;13.95;5.07;;;7.00;91.30;;;;;;5048835;28;20037;-66
2021/12/16 02:55:10;;;;;;;15.60;5.32;;;7.00;91.30;;;;;;5036323;28;20092;-66
2021/12/16 02:57:45;;;;;;;13.55;5.70;;;7.00;91.40;;;;;;5042307;28;20056;-66
2021/12/16 03:00:14;;;;;;;9.93;4.10;;;7.00;91.40;;;;;;5049707;28;20044;-66
2021/12/16 03:02:42;;;;;;;8.52;5.40;;;7.00;91.30;;;;;;5048650;28;20037;-66
2021/12/16 03:05:09;;;;;;;9.30;4.82;;;7.00;91.20;;;;;;5049367;28;20132;-66
2021/12/16 03:07:35;;;;;;;17.92;6.00;;;6.90;91.20;;;;;;5047552;28;20821;-66
2021/12/16 03:15:40;;;;;;;12.25;5.65;;;6.90;91.80;;;;;;5049305;28;20049;-66
2021/12/16 03:20:47;;;;;;;17.92;5.05;;;7.00;91.80;;;;;;5048397;28;20612;-66
2021/12/16 03:28:32;;;;;;;15.18;4.97;;;7.00;92.30;;;;;;5048546;28;20048;-66
2021/12/16 03:31:09;;;;;;;14.52;5.88;;;7.00;92.20;;;;;;5049051;28;20045;-66
2021/12/16 03:36:26;;;;;;;11.98;4.65;;;7.10;92.30;;;;;;5048726;28;20635;-66
2021/12/16 03:39:07;;;;;;;11.20;4.63;;;7.10;92.60;;;;;;5046080;28;20044;-66
2021/12/16 03:41:33;;;;;;;8.00;4.40;;;7.10;92.50;;;;;;5050573;28;20104;-66
2021/12/16 03:44:00;;;;;;;11.55;5.53;;;7.10;92.50;;;;;;5052936;28;20510;-66
2021/12/16 03:46:33;;;;;;;14.00;4.80;;;7.10;92.60;;;;;;5052934;28;20098;-66
2021/12/16 03:49:17;;;;;;;16.02;5.10;;;7.10;92.50;;;;;;5052973;28;20063;-66
2021/12/16 03:51:50;;;;;;;15.10;5.95;;;7.10;92.70;;;;;;5051152;28;20049;-66
2021/12/16 03:54:26;;;;;;;12.13;5.18;;;7.10;92.80;;;;;;5043955;28;20049;-66
2021/12/16 03:56:53;;;;;;;23.92;5.25;;;7.10;92.70;;;;;;5044361;28;20041;-66
2021/12/16 03:59:23;;;;;;;12.85;5.07;;;7.00;92.60;;;;;;5052949;28;20079;-66
2021/12/16 04:01:51;;;;;;;10.38;4.57;;;7.00;92.70;;;;;;5052259;28;20041;-66
2021/12/16 04:04:17;;;;;;;19.30;5.22;;;7.00;92.80;;;;;;5052537;28;20077;-66
2021/12/16 04:06:43;;;;;;;10.55;4.90;;;7.00;92.70;;;;;;5052024;28;20076;-66
2021/12/16 04:09:12;;;;;;;10.73;5.57;;;7.00;92.60;;;;;;5037122;28;20498;-66
2021/12/16 04:11:43;;;;;;;12.10;5.20;;;6.90;92.60;;;;;;5037984;28;20167;-66
2021/12/16 04:14:11;;;;;;;10.60;4.90;;;6.90;92.60;;;;;;5052322;28;20041;-66
2021/12/16 04:16:45;;;;;;;15.57;5.05;;;6.90;92.60;;;;;;5052249;28;20040;-66
2021/12/16 04:19:14;;;;;;;16.58;4.85;;;6.90;92.70;;;;;;5052556;28;20037;-66
2021/12/16 04:21:43;;;;;;;17.60;5.38;;;6.90;92.70;;;;;;5050658;28;20049;-66
2021/12/16 04:24:09;;;;;;;19.60;6.30;;;6.90;92.70;;;;;;5051240;28;20073;-66
2021/12/16 04:26:37;;;;;;;12.35;4.15;;;7.00;92.60;;;;;;5052619;28;20068;-66
2021/12/16 04:29:06;;;;;;;10.43;5.45;;;6.90;92.70;;;;;;5050719;28;20379;-66
2021/12/16 04:31:34;;;;;;;14.35;5.22;;;7.00;92.60;;;;;;5052333;28;20096;-66
2021/12/16 04:34:01;;;;;;;16.90;6.13;;;7.00;92.60;;;;;;5050950;28;20048;-66
2021/12/16 04:36:27;;;;;;;14.00;5.50;;;7.00;92.40;;;;;;5050574;28;20045;-66
2021/12/16 04:38:53;;;;;;;11.13;4.80;;;6.90;92.60;;;;;;5045493;28;20052;-66
2021/12/16 04:41:19;;;;;;;10.55;4.00;;;7.00;92.60;;;;;;5051028;28;20524;-66
2021/12/16 04:43:50;;;;;;;11.10;3.88;;;7.00;92.60;;;;;;5051373;28;20525;-66
2021/12/16 04:46:26;;;;;;;17.15;4.00;;;7.10;92.60;;;;;;5051960;28;20059;-66
2021/12/16 04:48:56;;;;;;;11.85;5.43;;;7.10;92.50;;;;;;5051511;28;20049;-66
2021/12/16 04:51:24;;;;;;;8.55;4.45;;;7.10;92.40;;;;;;5050673;28;20044;-66
2021/12/16 04:53:50;;;;;;;12.98;6.13;;;7.00;92.30;;;;;;5051490;28;20041;-66
2021/12/16 04:56:17;;;;;;;9.35;4.22;;;7.10;92.30;;;;;;5050809;28;20044;-66
2021/12/16 04:58:46;;;;;;;11.55;4.38;;;7.10;92.00;;;;;;5051501;28;20052;-66
2021/12/16 05:01:12;;;;;;;14.68;4.55;;;7.00;92.00;;;;;;5051477;28;20093;-66
2021/12/16 05:03:38;;;;;;;14.77;5.63;;;6.90;92.00;;;;;;5050807;28;20448;-66
2021/12/16 05:06:05;;;;;;;12.25;4.60;;;6.90;91.90;;;;;;5051433;28;20055;-66
2021/12/16 05:08:31;;;;;;;13.63;5.03;;;6.90;92.10;;;;;;5051409;28;20041;-66
2021/12/16 05:11:00;;;;;;;16.33;6.40;;;6.90;92.20;;;;;;5051361;28;20111;-66
2021/12/16 05:13:27;;;;;;;11.45;5.55;;;6.90;92.20;;;;;;5051472;28;20383;-66
2021/12/16 05:15:56;;;;;;;12.35;5.03;;;6.90;92.20;;;;;;5050987;28;20079;-66
2021/12/16 05:18:31;;;;;;;12.60;4.65;;;6.90;92.20;;;;;;5050842;28;20102;-66
2021/12/16 05:20:58;;;;;;;15.05;4.65;;;6.90;92.20;;;;;;5051221;28;20086;-66
2021/12/16 05:28:45;;;;;;;12.00;5.45;;;7.00;92.10;;;;;;5051059;28;20045;-66
2021/12/16 05:31:12;;;;;;;11.85;5.60;;;7.00;92.10;;;;;;5050661;28;20494;-66
2021/12/16 05:33:38;;;;;;;16.33;6.95;;;7.10;92.10;;;;;;5049291;28;20398;-66
2021/12/16 05:36:04;;;;;;;7.97;4.55;;;7.00;92.00;;;;;;5032307;28;20053;-66
2021/12/16 05:38:31;;;;;;;14.63;6.22;;;7.10;92.00;;;;;;5050446;28;20041;-68
2021/12/16 05:40:58;;;;;;;11.70;5.47;;;7.10;92.00;;;;;;5049758;28;20049;-68
2021/12/16 05:43:25;;;;;;;8.43;4.60;;;7.10;91.90;;;;;;5050962;28;20513;-66
2021/12/16 05:45:53;;;;;;;8.73;4.43;;;7.10;91.80;;;;;;5049824;28;20049;-66
2021/12/16 05:48:22;;;;;;;10.10;4.07;;;7.10;91.80;;;;;;5050661;28;20509;-66
2021/12/16 05:50:55;;;;;;;9.07;4.70;;;7.10;91.60;;;;;;5050462;28;20045;-67
2021/12/16 05:53:22;;;;;;;8.85;4.50;;;7.10;91.60;;;;;;5050781;28;20494;-66
2021/12/16 05:55:48;;;;;;;15.70;4.60;;;7.10;91.40;;;;;;5050458;28;20482;-66
2021/12/16 05:58:19;;;;;;;8.32;4.10;;;7.00;91.40;;;;;;5050174;28;20047;-66
2021/12/16 06:00:48;;;;;;;12.00;5.53;;;7.10;91.50;;;;;;5049650;28;20128;-66
2021/12/16 06:03:15;;;;;;;10.45;4.95;;;7.10;91.40;;;;;;5050659;28;20049;-66
2021/12/16 06:05:41;;;;;;;15.25;5.32;;;7.10;91.40;;;;;;5047796;28;20504;-66
2021/12/16 06:08:08;;;;;;;6.82;4.53;;;7.10;91.30;;;;;;5041599;28;20049;-66
2021/12/16 06:13:09;;;;;;;10.10;4.75;;;7.10;91.20;;;;;;5050183;28;20072;-66
2021/12/16 06:26:37;;;;;;;5.47;4.05;;;7.10;90.60;;;;;;5050235;28;20160;-66
2021/12/16 06:29:03;;;;;;;7.55;4.28;;;7.10;90.50;;;;;;5049842;28;20120;-66
2021/12/16 06:31:30;;;;;;;7.18;3.95;;;7.00;90.40;;;;;;5050036;28;20091;-66
2021/12/16 06:33:56;;;;;;;7.72;3.90;;;7.00;90.30;;;;;;5031197;28;20135;-66
2021/12/16 06:36:22;;;;;;;9.93;4.10;;;7.00;90.20;;;;;;5049599;28;20041;-66
2021/12/16 06:38:47;;;;;;;9.15;4.38;;;7.00;90.00;;;;;;5048297;28;20097;-66
2021/12/16 06:41:13;;;;;;;8.13;4.88;;;7.00;89.90;;;;;;5048026;28;20214;-66
2021/12/16 06:43:39;;;;;;;8.18;5.07;;;7.00;90.00;;;;;;5049900;28;20056;-66
2021/12/16 06:46:09;;;;;;;10.27;4.40;;;6.90;89.80;;;;;;5049760;28;20044;-66
2021/12/16 06:48:38;;;;;;;11.15;5.10;;;6.90;90.00;;;;;;5031822;28;20045;-66
2021/12/16 06:51:10;;;;;;;9.77;4.38;;;6.80;90.20;;;;;;5048633;28;20452;-66
2021/12/16 06:56:27;;;;;;;14.75;4.95;;;6.90;90.50;;;;;;5048019;28;20520;-65
2021/12/16 06:59:06;;;;;;;8.02;3.45;;;6.90;90.50;;;;;;5049135;28;20489;-65
2021/12/16 07:03:59;;;;;;;9.45;4.25;;;6.80;90.30;;;;;;5048112;28;20098;-65
2021/12/16 07:06:27;;;;;;;10.27;4.40;;;6.70;90.40;;;;;;5046415;28;20472;-65
2021/12/16 07:09:00;;;;;;;19.15;5.45;;;6.70;90.50;;;;;;5048447;28;20051;-66
2021/12/16 07:11:27;;;;;;;25.10;4.45;;;6.70;90.70;;;;;;5048822;28;20052;-66
2021/12/16 07:13:58;;;;;;;9.32;4.55;;;6.70;90.80;;;;;;5047856;28;20552;-66
2021/12/16 07:16:26;;;;;;;10.07;4.93;;;6.70;90.80;;;;;;5041048;28;20135;-66
2021/12/16 07:18:52;;;;;;;7.78;5.13;;;6.80;91.10;;;;;;5044321;28;20513;-65
2021/12/16 07:21:17;;;;;;;8.45;5.60;;;7.00;91.40;;;;;;5045414;28;20501;-65
2021/12/16 07:23:43;;;;;;;13.40;7.13;;;7.10;91.00;;;;;;5048731;28;20033;-65
2021/12/16 07:26:09;;;;;;;12.45;7.35;;;7.10;90.80;;;;;;5048488;28;20041;-65
2021/12/16 07:28:34;;;;;;;12.30;7.65;;;7.10;90.80;;;;;;5041066;28;20044;-65
2021/12/16 07:31:01;;;;;;;12.63;8.07;;;7.10;90.80;;;;;;5048922;28;20047;-65
2021/12/16 07:33:27;;;;;;;14.10;7.10;;;7.10;90.80;;;;;;5049028;28;20044;-65
2021/12/16 07:35:53;;;;;;;14.18;6.45;;;7.10;90.70;;;;;;5048650;28;20498;-65
2021/12/16 07:38:21;;;;;;;12.65;6.50;;;7.00;90.60;;;;;;5048884;28;20044;-65
2021/12/16 07:40:49;;;;;;;8.23;5.10;;;7.00;90.60;;;;;;5048133;28;20055;-65
2021/12/16 07:43:43;;;;;;;9.00;6.07;;;7.00;90.50;;;;;;5048913;28;20091;-65
2021/12/16 07:46:10;;;;;;;8.65;5.50;;;7.00;90.30;;;;;;5028567;28;20050;-65
2021/12/16 07:48:36;;;;;;;8.25;5.95;;;6.90;90.40;;;;;;5027657;28;20056;-65
2021/12/16 07:51:04;;;;;;;8.73;5.22;;;6.90;90.40;;;;;;5029110;28;20049;-65
2021/12/16 07:53:29;;;;;;;6.82;5.07;;;7.00;90.40;;;;;;5028637;28;20048;-65
2021/12/16 07:55:55;;;;;;;8.70;4.63;;;7.00;90.30;;;;;;5037333;28;20041;-65
2021/12/16 07:58:23;;;;;;;6.32;4.80;;;6.90;90.10;;;;;;5048205;28;20088;-65
2021/12/16 08:00:51;;;;;;;7.43;4.22;;;6.90;90.10;;;;;;5048146;28;20056;-65
2021/12/16 08:03:18;;;;;;;21.95;4.95;;;6.80;90.00;;;;;;5048339;28;20048;-65
2021/12/16 08:05:51;;;;;;;18.30;4.60;;;6.80;90.00;;;;;;5047769;28;20099;-65
2021/12/16 08:08:16;;;;;;;8.05;4.53;;;6.70;90.10;;;;;;5048299;28;20057;-65
2021/12/16 08:10:42;;;;;;;27.13;3.85;;;6.70;90.10;;;;;;5048782;28;20448;-65
2021/12/16 08:13:08;;;;;;;8.85;3.72;;;6.60;90.10;;;;;;5047071;28;20037;-65
2021/12/16 08:15:34;;;;;;;5.00;3.83;;;6.60;90.10;;;;;;5048372;28;20160;-65
2021/12/16 08:18:00;;;;;;;17.13;3.50;;;6.50;90.20;;;;;;5048458;28;20087;-65
2021/12/16 08:20:26;;;;;;;31.98;4.78;;;6.60;90.30;;;;;;5047485;28;20043;-65
2021/12/16 08:22:56;;;;;;;19.35;4.05;;;6.50;90.30;;;;;;5048544;28;20076;-65
2021/12/16 08:25:24;;;;;;;12.65;3.50;;;6.50;90.40;;;;;;5050627;28;20596;-65
2021/12/16 08:27:52;;;;;;;6.20;3.70;;;6.40;90.40;;;;;;5052212;28;20545;-65
2021/12/16 08:30:20;;;;;;;13.80;3.92;;;6.50;90.40;;;;;;5052305;28;20045;-65
2021/12/16 08:32:46;;;;;;;6.82;3.70;;;6.50;90.50;;;;;;5052031;28;20930;-65
2021/12/16 08:35:13;;;;;;;5.57;3.50;;;6.50;90.60;;;;;;5052324;28;20121;-65
2021/12/16 08:37:39;;;;;;;27.05;4.32;;;6.50;90.50;;;;;;5051810;28;20505;-65
2021/12/16 08:40:13;;;;;;;11.60;5.32;;;6.60;90.50;;;;;;5051942;28;20045;-65
2021/12/16 08:42:39;;;;;;;25.95;5.47;;;6.60;90.60;;;;;;5052158;28;20076;-65
2021/12/16 08:45:09;;;;;;;11.05;5.55;;;6.50;90.90;;;;;;5051944;28;20041;-65
2021/12/16 08:47:35;;;;;;;26.80;5.72;;;6.60;91.10;;;;;;5051548;28;20089;-65
2021/12/16 08:50:01;;;;;;;12.02;5.30;;;6.60;91.10;;;;;;5051878;28;20076;-66
2021/12/16 08:52:27;;;;;;;7.50;5.10;;;6.60;91.10;;;;;;5052037;28;20048;-65
2021/12/16 08:54:52;;;;;;;15.88;6.13;;;6.70;91.20;;;;;;5051474;28;20052;-65
2021/12/16 08:57:18;;;;;;;21.35;5.25;;;6.70;91.20;;;;;;5031993;28;20053;-65
2021/12/16 08:59:46;;;;;;;11.77;6.65;;;6.70;91.10;;;;;;5031457;28;20176;-65
2021/12/16 09:02:12;;;;;;;26.50;5.78;;;6.80;91.20;;;;;;5031840;28;20095;-65
2021/12/16 09:04:38;;;;;;;12.57;5.97;;;6.80;91.10;;;;;;5031633;28;20418;-65
2021/12/16 09:07:06;;;;;;;12.48;5.72;;;6.80;91.20;;;;;;5031750;28;20809;-65
2021/12/16 09:09:34;;;;;;;25.63;5.80;;;6.90;91.20;;;;;;5031914;28;20037;-65
2021/12/16 09:12:25;;;;;;;9.93;6.03;;;6.90;91.10;;;;;;5032190;28;20052;-65
2021/12/16 09:14:52;;;;;;;8.95;5.85;;;6.90;91.20;;;;;;5031548;28;20120;-65
2021/12/16 09:17:17;;;;;;;11.70;5.05;;;6.80;91.10;;;;;;5042901;28;20049;-65
2021/12/16 09:19:48;;;;;;;10.35;5.85;;;6.90;91.10;;;;;;5050795;28;20033;-65
2021/12/16 09:22:17;;;;;;;24.47;4.60;;;6.90;91.10;;;;;;5051249;28;20091;-65
2021/12/16 09:24:45;;;;;;;36.38;5.30;;;6.90;91.10;;;;;;5050854;28;20354;-65
2021/12/16 09:27:11;;;;;;;23.20;4.88;;;6.80;91.10;;;;;;5050710;28;20041;-65
2021/12/16 09:29:37;;;;;;;15.13;4.78;;;6.80;91.10;;;;;;5051064;28;20075;-65
2021/12/16 09:32:04;;;;;;;13.48;5.70;;;6.80;91.20;;;;;;5050705;28;20080;-65
2021/12/16 09:34:31;;;;;;;16.58;5.95;;;6.80;91.20;;;;;;5050307;28;20072;-65
2021/12/16 09:36:57;;;;;;;16.15;5.88;;;6.80;91.30;;;;;;5048786;28;20072;-65
2021/12/16 09:39:24;;;;;;;10.45;5.53;;;6.80;91.30;;;;;;5050335;28;20123;-65
2021/12/16 09:41:51;;;;;;;19.58;5.43;;;6.80;91.50;;;;;;5050373;28;20048;-65
2021/12/16 09:44:19;;;;;;;21.48;5.57;;;6.80;91.50;;;;;;5050433;28;20084;-65
2021/12/16 09:46:48;;;;;;;15.07;6.05;;;6.90;91.50;;;;;;5049667;28;20087;-65
2021/12/16 09:49:15;;;;;;;25.90;6.10;;;6.90;91.50;;;;;;5050620;28;20144;-65
2021/12/16 09:51:43;;;;;;;19.33;6.00;;;6.90;91.70;;;;;;5050593;28;20045;-65
2021/12/16 09:54:14;;;;;;;44.15;7.00;;;6.90;91.70;;;;;;5050682;28;20489;-65
2021/12/16 09:56:41;;;;;;;15.13;5.80;;;7.00;91.70;;;;;;5048817;28;20045;-65
2021/12/16 09:59:10;;;;;;;24.15;7.18;;;6.90;91.80;;;;;;5050371;28;20072;-65
2021/12/16 10:01:36;;;;;;;32.35;9.10;;;6.90;91.90;;;;;;5050274;28;20045;-65
2021/12/16 10:04:07;;;;;;;41.97;11.45;;;7.00;91.90;;;;;;5030216;28;20521;-65
2021/12/16 10:06:35;;;;;;;31.55;13.52;;;7.10;91.90;;;;;;5030187;28;20057;-65
2021/12/16 10:09:03;;;;;;;24.08;10.95;;;7.10;92.00;;;;;;5050763;28;20401;-65
2021/12/16 10:11:29;;;;;;;45.10;11.23;;;7.10;92.00;;;;;;5050004;28;20365;-65
2021/12/16 10:19:27;;;;;;;13.35;7.97;;;7.30;92.30;;;;;;5049822;28;20060;-65
2021/12/16 10:21:54;;;;;;;8.38;7.03;;;7.30;92.50;;;;;;5048453;28;20391;-65
2021/12/16 10:24:31;;;;;;;10.00;7.40;;;7.30;92.40;;;;;;5050236;28;20072;-65
2021/12/16 10:27:06;;;;;;;11.82;8.63;;;7.50;92.50;;;;;;5048823;28;20049;-65
2021/12/16 10:29:42;;;;;;;36.22;8.00;;;7.60;92.50;;;;;;5049201;28;20090;-65
2021/12/16 10:32:34;;;;;;;11.07;8.52;;;7.60;92.50;;;;;;5050046;28;20123;-65
2021/12/16 10:35:04;;;;;;;14.90;8.10;;;7.70;92.40;;;;;;5049345;28;20049;-65
2021/12/16 10:37:33;;;;;;;26.15;9.40;;;7.70;92.60;;;;;;5044312;28;20044;-65
2021/12/16 10:40:24;;;;;;;19.02;9.43;;;7.70;92.60;;;;;;5047720;28;20059;-65
2021/12/16 10:42:50;;;;;;;44.45;10.02;;;7.80;92.60;;;;;;5044928;28;20525;-65
2021/12/16 10:45:35;;;;;;;22.60;10.40;;;7.80;92.70;;;;;;5029876;28;20510;-66
2021/12/16 10:48:29;;;;;;;20.02;9.63;;;7.90;92.70;;;;;;5029622;28;20053;-66
2021/12/16 10:51:20;;;;;;;11.70;9.27;;;8.00;92.70;;;;;;5029708;28;20091;-65
2021/12/16 10:54:05;;;;;;;14.10;10.25;;;8.10;92.70;;;;;;5039563;28;20562;-65
2021/12/16 10:56:56;;;;;;;20.20;10.18;;;8.10;92.70;;;;;;5048081;28;20056;-65
2021/12/16 10:59:35;;;;;;;15.07;10.10;;;8.20;92.60;;;;;;5049720;28;20414;-65
2021/12/16 11:02:08;;;;;;;18.70;10.60;;;8.20;92.70;;;;;;5049084;28;20045;-65
2021/12/16 11:04:45;;;;;;;17.92;11.50;;;8.30;92.70;;;;;;5049546;28;20044;-65
2021/12/16 11:07:16;;;;;;;16.83;10.63;;;8.40;92.70;;;;;;5048933;28;20037;-65
2021/12/16 11:09:58;;;;;;;17.73;9.52;;;8.50;92.70;;;;;;5049475;28;20191;-65
2021/12/16 11:12:36;;;;;;;16.05;9.55;;;8.60;92.70;;;;;;5048361;28;20525;-65
2021/12/16 11:15:21;;;;;;;16.52;10.18;;;8.60;92.70;;;;;;5048158;28;20048;-65
2021/12/16 11:18:07;;;;;;;17.65;11.23;;;8.60;92.60;;;;;;5038354;28;20091;-65
2021/12/16 11:20:41;;;;;;;17.65;10.57;;;8.70;92.60;;;;;;5045712;28;20047;-65
2021/12/16 11:23:29;;;;;;;20.45;10.73;;;8.80;92.60;;;;;;5033476;28;20080;-65
2021/12/16 11:26:01;;;;;;;14.93;10.02;;;8.90;92.50;;;;;;5047983;28;20041;-65
2021/12/16 11:28:33;;;;;;;17.70;10.40;;;8.90;92.60;;;;;;5047784;28;20565;-65
2021/12/16 11:31:00;;;;;;;16.65;10.27;;;8.90;92.50;;;;;;5048598;28;20045;-65
2021/12/16 11:33:26;;;;;;;15.40;10.48;;;9.00;92.50;;;;;;5047471;28;20067;-65
2021/12/16 11:36:06;;;;;;;16.58;9.95;;;9.00;92.40;;;;;;5047776;28;20098;-65
2021/12/16 11:38:34;;;;;;;18.08;10.23;;;9.10;92.40;;;;;;5048255;28;20091;-65
2021/12/16 11:41:16;;;;;;;16.00;10.00;;;9.10;92.40;;;;;;5048246;28;20077;-65
2021/12/16 11:43:50;;;;;;;15.48;9.88;;;9.10;92.40;;;;;;5048180;28;20057;-65
2021/12/16 11:46:42;;;;;;;20.17;11.15;;;9.10;92.40;;;;;;5048614;28;20505;-65
2021/12/16 11:49:15;;;;;;;17.20;11.68;;;9.20;92.30;;;;;;5060929;28;20144;-65
2021/12/16 11:51:46;;;;;;;18.45;10.23;;;9.20;92.40;;;;;;5048044;28;20512;-65
2021/12/16 11:54:17;;;;;;;19.83;11.52;;;9.20;92.30;;;;;;5047417;28;20186;-65
2021/12/16 11:56:57;;;;;;;23.52;11.20;;;9.30;92.30;;;;;;5032427;28;20045;-65
2021/12/16 11:59:30;;;;;;;17.52;11.07;;;9.30;92.30;;;;;;5049677;28;20041;-65
2021/12/16 12:01:57;;;;;;;19.35;10.95;;;9.40;92.30;;;;;;5051884;28;20540;-65
2021/12/16 12:04:27;;;;;;;19.75;10.65;;;9.30;92.20;;;;;;5052319;28;20494;-65
2021/12/16 12:06:52;;;;;;;26.92;11.52;;;9.30;92.20;;;;;;5050586;28;20097;-65
2021/12/16 12:09:18;;;;;;;16.63;9.80;;;9.30;92.20;;;;;;5046068;28;20155;-66
2021/12/16 12:11:44;;;;;;;17.73;9.60;;;9.40;92.20;;;;;;5052129;28;20029;-65
2021/12/16 12:14:17;;;;;;;18.25;10.43;;;9.40;92.20;;;;;;5051847;28;20087;-65
2021/12/16 12:16:47;;;;;;;15.65;9.98;;;9.40;92.20;;;;;;5051203;28;20557;-65
2021/12/16 12:19:23;;;;;;;22.02;10.93;;;9.50;92.20;;;;;;5050974;28;20649;-65
2021/12/16 12:22:03;;;;;;;23.75;10.75;;;9.50;92.20;;;;;;5052137;28;20045;-65
2021/12/16 12:24:34;;;;;;;17.83;10.55;;;9.50;92.10;;;;;;5047028;28;20536;-65
2021/12/16 12:27:05;;;;;;;22.38;10.35;;;9.50;92.20;;;;;;5050359;28;20516;-65
2021/12/16 12:29:53;;;;;;;21.52;11.18;;;9.60;92.10;;;;;;5051605;28;20114;-65
2021/12/16 12:32:28;;;;;;;22.55;10.07;;;9.60;92.10;;;;;;5051616;28;20049;-65
2021/12/16 12:35:20;;;;;;;19.30;10.07;;;9.60;92.10;;;;;;5050253;28;20136;-65
2021/12/16 12:37:53;;;;;;;21.35;10.48;;;9.60;91.90;;;;;;5048848;28;20421;-65
2021/12/16 12:40:27;;;;;;;14.55;9.27;;;9.60;92.10;;;;;;5051782;28;20048;-65
2021/12/16 12:42:56;;;;;;;13.98;9.40;;;9.60;92.00;;;;;;5051567;28;20537;-65
2021/12/16 12:45:27;;;;;;;13.82;9.63;;;9.60;92.00;;;;;;5051898;28;20045;-65
2021/12/16 12:47:57;;;;;;;18.73;10.40;;;9.60;92.00;;;;;;5050645;28;20045;-65
2021/12/16 12:50:24;;;;;;;25.88;10.45;;;9.60;91.90;;;;;;5051635;28;20037;-65
2021/12/16 12:52:53;;;;;;;17.60;9.85;;;9.60;91.90;;;;;;5051368;28;20073;-65
2021/12/16 12:55:31;;;;;;;19.67;10.10;;;9.60;91.90;;;;;;5050280;28;20056;-65
2021/12/16 12:58:17;;;;;;;18.40;10.13;;;9.70;91.90;;;;;;5033409;28;20084;-65
2021/12/16 13:00:51;;;;;;;18.85;9.98;;;9.60;91.90;;;;;;5050795;28;20055;-65
2021/12/16 13:03:22;;;;;;;17.23;10.70;;;9.60;92.00;;;;;;5051163;28;20041;-65
2021/12/16 13:05:57;;;;;;;19.50;11.93;;;9.60;92.10;;;;;;5051542;28;20052;-65
2021/12/16 13:08:36;;;;;;;22.75;11.10;;;9.70;92.20;;;;;;5051555;28;20501;-65
2021/12/16 13:11:26;;;;;;;24.75;11.65;;;9.60;92.20;;;;;;5047493;28;20044;-65
2021/12/16 13:14:15;;;;;;;21.92;11.68;;;9.70;92.10;;;;;;5040911;28;20610;-65
2021/12/16 13:28:04;;;;;;;22.75;12.77;;;9.90;92.30;;;;;;5050538;28;20048;-65
2021/12/16 13:30:40;;;;;;;19.83;13.55;;;9.90;92.30;;;;;;5050646;28;20106;-65
2021/12/16 13:33:19;;;;;;;23.08;13.38;;;9.90;92.30;;;;;;5048843;28;20052;-65
2021/12/16 13:35:52;;;;;;;33.45;14.38;;;9.90;92.30;;;;;;5032668;28;20060;-65
2021/12/16 13:38:20;;;;;;;23.23;12.93;;;10.00;92.20;;;;;;5046413;28;20059;-65
2021/12/16 13:40:48;;;;;;;25.48;13.65;;;9.90;92.30;;;;;;5050120;28;20049;-65
2021/12/16 13:43:25;;;;;;;23.27;14.02;;;9.90;92.30;;;;;;5048946;28;20041;-65
2021/12/16 13:46:30;;;;;;;24.40;14.00;;;10.00;92.40;;;;;;5051061;28;20052;-65
2021/12/16 14:03:28;;;;;;;27.27;13.63;;;10.10;92.50;;;;;;5030870;28;20052;-65
2021/12/16 14:06:12;;;;;;;29.27;13.93;;;10.00;92.50;;;;;;5034517;28;20037;-65
2021/12/16 14:08:42;;;;;;;24.77;14.23;;;10.10;92.50;;;;;;5048958;28;20494;-65
2021/12/16 14:23:36;;;;;;;24.33;13.05;;;10.00;92.40;;;;;;5036858;28;20049;-65
2021/12/16 14:26:32;;;;;;;27.05;13.55;;;10.00;92.20;;;;;;5048392;28;20631;-65
2021/12/16 14:32:54;;;;;;;29.55;13.75;;;9.90;92.30;;;;;;5049347;28;20076;-65
2021/12/16 14:34:59;;;;;;;30.50;14.82;;;9.90;92.30;;;;;;5048349;28;20379;-65
2021/12/16 14:45:33;;;;;;;30.88;13.60;;;9.90;92.40;;;;;;5048663;28;20044;-65
2021/12/16 14:50:56;;;;;;;36.25;14.77;;;9.90;92.40;;;;;;5039421;28;20081;-65
2021/12/16 14:53:27;;;;;;;28.65;14.80;;;10.00;92.40;;;;;;5043885;28;20470;-65
2021/12/16 14:55:58;;;;;;;32.90;16.02;;;9.90;92.30;;;;;;5048844;28;20136;-65
2021/12/16 14:58:24;;;;;;;33.17;16.70;;;9.90;92.40;;;;;;5048643;28;20139;-65
2021/12/16 15:01:02;;;;;;;31.63;16.23;;;9.90;92.30;;;;;;5049546;28;20041;-65
2021/12/16 15:03:34;;;;;;;28.40;15.70;;;9.80;92.30;;;;;;5049369;28;20029;-65
2021/12/16 15:06:04;;;;;;;30.00;16.38;;;9.80;92.30;;;;;;5047972;28;20409;-65
2021/12/16 15:11:35;;;;;;;34.28;17.88;;;9.80;92.40;;;;;;5038864;28;20045;-65
2021/12/16 15:14:06;;;;;;;26.13;15.32;;;9.80;92.50;;;;;;5047234;28;20048;-65
2021/12/16 15:36:45;;;;;;;42.22;18.63;;;9.50;93.00;;;;;;5047255;28;20080;-65
2021/12/16 15:44:51;;;;;;;39.05;17.45;;;9.40;93.10;;;;;;5047145;28;19924;-65
2021/12/16 15:47:18;;;;;;;35.88;18.08;;;9.40;93.50;;;;;;5046729;28;20485;-65
2021/12/16 15:49:44;;;;;;;45.63;18.63;;;9.40;93.40;;;;;;5047973;28;20052;-65
2021/12/16 15:52:10;;;;;;;44.97;21.80;;;9.40;93.40;;;;;;5046953;28;20041;-65
2021/12/16 15:54:37;;;;;;;51.20;20.08;;;9.40;93.30;;;;;;5048217;28;20044;-65
2021/12/16 15:57:05;;;;;;;52.42;19.45;;;9.40;93.30;;;;;;5047112;28;20045;-65
2021/12/16 15:59:33;;;;;;;40.10;18.50;;;9.40;93.30;;;;;;5028386;28;20494;-65
2021/12/16 16:02:00;;;;;;;50.17;19.35;;;9.40;93.20;;;;;;5029135;28;20061;-65
2021/12/16 16:04:37;;;;;;;38.85;17.42;;;9.40;93.20;;;;;;5032721;28;20037;-65
2021/12/16 16:07:07;;;;;;;52.65;17.98;;;9.40;93.30;;;;;;5048895;28;20056;-65
2021/12/16 16:09:38;;;;;;;47.72;19.42;;;9.40;93.40;;;;;;5048895;28;20146;-65
2021/12/16 16:12:05;;;;;;;43.65;20.08;;;9.40;93.30;;;;;;5048788;28;20144;-65
2021/12/16 16:14:33;;;;;;;35.88;18.40;;;9.40;93.30;;;;;;5048574;28;20464;-65
2021/12/16 16:17:00;;;;;;;43.90;16.80;;;9.40;93.30;;;;;;5048226;28;20157;-65
2021/12/16 16:19:34;;;;;;;43.15;17.00;;;9.50;93.30;;;;;;5046082;28;20052;-65
2021/12/16 16:22:04;;;;;;;37.50;18.50;;;9.50;93.30;;;;;;5028886;28;20054;-65
2021/12/16 16:24:34;;;;;;;46.63;19.20;;;9.50;93.20;;;;;;5050702;28;20414;-65
2021/12/16 16:27:03;;;;;;;46.33;21.25;;;9.60;93.20;;;;;;5036539;28;20081;-65
2021/12/16 16:29:31;;;;;;;47.30;20.52;;;9.60;93.20;;;;;;5028403;28;20524;-65
2021/12/16 16:31:57;;;;;;;37.47;19.20;;;9.60;93.10;;;;;;5033028;28;20128;-65
2021/12/16 16:34:38;;;;;;;63.67;24.67;;;9.60;93.20;;;;;;5048372;28;20045;-65
2021/12/16 16:37:06;;;;;;;51.05;20.00;;;9.60;93.20;;;;;;5048210;28;20041;-65
2021/12/16 16:39:36;;;;;;;40.88;19.85;;;9.60;93.20;;;;;;5048211;28;20049;-65
2021/12/16 16:42:12;;;;;;;39.30;18.35;;;9.60;93.20;;;;;;5048657;28;20428;-65
2021/12/16 16:44:39;;;;;;;42.47;18.40;;;9.60;93.10;;;;;;5064009;28;20682;-65
2021/12/16 16:47:13;;;;;;;39.88;20.63;;;9.50;93.10;;;;;;5071877;28;20036;-65
2021/12/16 16:49:49;;;;;;;36.28;20.33;;;9.50;93.00;;;;;;5070596;28;20075;-65
2021/12/16 16:52:22;;;;;;;46.72;24.15;;;9.40;93.10;;;;;;5057671;28;20433;-65
2021/12/16 16:54:53;;;;;;;34.88;19.77;;;9.50;93.00;;;;;;5051306;28;20045;-65
2021/12/16 16:57:30;;;;;;;36.50;20.30;;;9.40;93.00;;;;;;5051619;28;20045;-65
2021/12/16 16:59:59;;;;;;;36.75;20.52;;;9.40;93.00;;;;;;5051951;28;20081;-65
2021/12/16 17:02:32;;;;;;;43.30;19.90;;;9.30;93.00;;;;;;5051771;28;20044;-65